Terminal Aerodrome Forecast
Issued by NWS

Home | Current Version | Previous Version | Text Only | Print | Product List | Glossary On
Versions: 1 2 3 4 5 6 7 8 9 10 11 12 13 14
888
FTUS43 KGRB 221724
TAFCWA
TAF
KCWA 221724Z 2218/2318 26005KT P6SM SKC
     FM230100 VRB03KT P6SM FEW250
     FM230600 15003KT P6SM SCT250
     FM231400 21006KT P6SM SCT140 BKN200=

USA.gov is the U.S. government's official web portal to all federal, state and local government web resources and services.